Jacksonville, IL (62650)

10:35 AM CST on February 06, 2016 (GMT -0600)
Book Lane | | Change Station
CLOSE
Current Station
Personal Weather Station
Location: Jacksonville, IL
Elevation: 663 ft
Nearby Weather Stations
Active Advisory: Flood Warning

Elev 663 ft 39.73 °N, 90.26 °W | Updated 9 seconds ago

Clear
Clear
39.6 °F
Feels Like 40 °F
N
1.6
Wind Variable Wind from SSE
Gusts 3.6 mph

Today
High -- | Low -- °F
--% Chance of Precip.
Yesterday
High -- | Low -- °F
Precip. -- in
Pressure 30.30 in
Visibility 10.0 miles
Clouds Clear
Windchill 40 °F
Dew Point 26 °F
Humidity 57%
Rainfall 0.00 in
Snow Depth Not available.
7:04 AM 5:26 PM
Waning Crescent, 5% visible
METAR KIJX 061535Z AUTO 19004KT 10SM CLR 03/M02 A3030 RMK AO2 T00341023
Pressure 30.30 in
Visibility 10.0 miles
Clouds Clear
Windchill 40 °F
Dew Point 26 °F
Humidity 57%
Rainfall 0.00 in
Snow Depth Not available.
7:04 AM 5:26 PM
Waning Crescent, 5% visible
METAR KIJX 061535Z AUTO 19004KT 10SM CLR 03/M02 A3030 RMK AO2 T00341023

10-Day Weather Forecast

Almanac

Astronomy

Feb. 06, 2016 Rise Set
Actual Time
Civil Twilight
Nautical Twilight
Astronomical Twilight
Moon
Length of Visible Light
Length of Day
Tomorrow will be .
, % of the Moon is Illuminated

Today's Extremes

State Highs State Lows

Community

WunderPhotos

Upload Photos

1,891,015 photos uploaded!

WunderBlog® & News

Nearby

Air Quality

  Air Quality AQ Index Pollutant
Not available.

Snow Depth

Station Depth Elevation

Earthquake Activity

City Distance Mag. Time & Date
Minimum magnitude displayed is 2.5.

Coastal Water Temperatures

Place Temperature

Stations

Nearby Weather Stations

Station Location Temp. Windchill Dew Point Humidity Wind Precip. Elev Updated Type
                   

Watches & Warnings

Flood Warning
Issued: 9:34 PM CST Feb. 5, 2016 – National Weather Service

The Flood Warning continues for
the Illinois River at Beardstown.
* Until Tuesday afternoon.
* At 845 PM Friday the stage was 13.4 feet.
* Flood stage is 14.0 feet.
* Forecast... the river is expected to rise to near flood stage Monday
morning.
* Impact... at 14.0 feet... minor flooding begins to agricultural areas
not protected by levees.



                  Fld observed forecast 6am
location stg stg day time Sat sun Mon

Illinois River
Beardstown 14 13.4 Fri 9 PM 13.5 13.8 14.0



Lat... Lon 4018 9023 4012 9017 4008 9037 3999 9046
      3999 9058 4015 9043